RYR8AG LZIB-LEBL
Flight info
| Callsign | RYR8AG |
|---|---|
| Flight time | N/A |
| Altitude | 36000 |
| Route | TOVKA DCT ABRUK DCT GEKBA DCT VAMTU DCT KOLON DCT GANGU DCT PADKO DCT DIVKO DCT NILDU DCT BISBA |
| Aircraft | B738/M-SDE2E3FGHIRWXY/LB1 |
Departure
| Time | N/A |
|---|---|
| Airport | M. R. Štefánik Airport (LZIB) |
Arrival
| Time | 2026-05-04 13:50 |
|---|---|
| Airport | Josep Tarradellas Barcelona-El Prat Airport (LEBL) |
| Time | Latitude | Longitude | Altitude | Speed | Heading |
|---|---|---|---|---|---|
| 2026-05-04 12:59 | 44.11623 | 7.57825 | 39118 ft | 404 kts | 233° |
| 2026-05-04 12:59 | 44.09801 | 7.54860 | 39122 ft | 404 kts | 233° |
| 2026-05-04 13:00 | 44.06144 | 7.48926 | 39119 ft | 404 kts | 233° |
| 2026-05-04 13:00 | 44.02454 | 7.43010 | 39113 ft | 405 kts | 232° |
| 2026-05-04 13:01 | 43.98748 | 7.37115 | 39105 ft | 406 kts | 232° |
| 2026-05-04 13:01 | 43.95029 | 7.31214 | 39098 ft | 406 kts | 233° |
| 2026-05-04 13:02 | 43.91307 | 7.25321 | 39088 ft | 406 kts | 232° |
| 2026-05-04 13:02 | 43.87587 | 7.19445 | 39093 ft | 405 kts | 232° |
| 2026-05-04 13:03 | 43.83877 | 7.13599 | 39091 ft | 403 kts | 233° |
| 2026-05-04 13:03 | 43.80170 | 7.07773 | 39076 ft | 402 kts | 232° |
| 2026-05-04 13:04 | 43.76503 | 7.02013 | 39084 ft | 401 kts | 232° |
| 2026-05-04 13:04 | 43.72907 | 6.96087 | 39085 ft | 398 kts | 239° |
| 2026-05-04 13:05 | 43.70403 | 6.89391 | 39074 ft | 395 kts | 249° |
| 2026-05-04 13:05 | 43.68376 | 6.82340 | 39065 ft | 395 kts | 250° |
| 2026-05-04 13:06 | 43.66333 | 6.75297 | 39080 ft | 395 kts | 249° |
| 2026-05-04 13:06 | 43.64265 | 6.68261 | 39083 ft | 395 kts | 249° |
| 2026-05-04 13:07 | 43.62206 | 6.61324 | 39071 ft | 396 kts | 249° |
| 2026-05-04 13:07 | 43.60108 | 6.54282 | 39072 ft | 396 kts | 249° |
| 2026-05-04 13:08 | 43.58011 | 6.47260 | 39071 ft | 397 kts | 248° |
| 2026-05-04 13:08 | 43.55918 | 6.40270 | 39054 ft | 397 kts | 249° |
| 2026-05-04 13:09 | 43.53790 | 6.33190 | 39042 ft | 398 kts | 249° |
| 2026-05-04 13:09 | 43.51668 | 6.26156 | 39050 ft | 398 kts | 248° |
| 2026-05-04 13:10 | 43.49550 | 6.19163 | 39037 ft | 398 kts | 248° |
| 2026-05-04 13:10 | 43.47416 | 6.12122 | 39045 ft | 398 kts | 249° |
| 2026-05-04 13:11 | 43.45287 | 6.05093 | 39039 ft | 398 kts | 248° |
| 2026-05-04 13:11 | 43.43167 | 5.98066 | 39035 ft | 398 kts | 249° |
| 2026-05-04 13:12 | 43.41039 | 5.91057 | 39047 ft | 397 kts | 248° |
| 2026-05-04 13:12 | 43.38904 | 5.84060 | 39047 ft | 396 kts | 248° |
| 2026-05-04 13:13 | 43.36768 | 5.77076 | 39041 ft | 395 kts | 248° |
| 2026-05-04 13:13 | 43.34628 | 5.70119 | 39032 ft | 395 kts | 248° |
| 2026-05-04 13:14 | 43.32492 | 5.63172 | 39034 ft | 394 kts | 248° |
| 2026-05-04 13:14 | 43.30352 | 5.56246 | 39038 ft | 394 kts | 248° |
| 2026-05-04 13:15 | 43.28210 | 5.49337 | 39032 ft | 393 kts | 248° |
| 2026-05-04 13:15 | 43.26073 | 5.42474 | 39028 ft | 393 kts | 248° |
| 2026-05-04 13:16 | 43.23931 | 5.35586 | 39032 ft | 392 kts | 248° |
| 2026-05-04 13:16 | 43.21790 | 5.28714 | 39020 ft | 391 kts | 247° |
| 2026-05-04 13:17 | 43.19646 | 5.21863 | 39026 ft | 391 kts | 248° |
| 2026-05-04 13:17 | 43.17497 | 5.15041 | 39026 ft | 390 kts | 247° |
| 2026-05-04 13:18 | 43.15339 | 5.08218 | 39027 ft | 390 kts | 248° |
| 2026-05-04 13:18 | 43.13177 | 5.01400 | 39007 ft | 390 kts | 247° |
| 2026-05-04 13:19 | 43.11008 | 4.94589 | 38995 ft | 390 kts | 247° |
| 2026-05-04 13:19 | 43.08841 | 4.87797 | 39006 ft | 389 kts | 247° |
| 2026-05-04 13:20 | 43.06612 | 4.81061 | 38972 ft | 390 kts | 241° |
| 2026-05-04 13:20 | 43.03422 | 4.75081 | 38998 ft | 390 kts | 229° |
| 2026-05-04 13:21 | 42.99430 | 4.70068 | 38980 ft | 393 kts | 225° |
| 2026-05-04 13:21 | 42.95300 | 4.65123 | 38995 ft | 392 kts | 225° |
| 2026-05-04 13:22 | 42.91235 | 4.60253 | 38985 ft | 392 kts | 225° |
| 2026-05-04 13:22 | 42.87138 | 4.55341 | 38986 ft | 392 kts | 225° |
| 2026-05-04 13:23 | 42.83096 | 4.50481 | 38970 ft | 392 kts | 225° |
| 2026-05-04 13:23 | 42.79003 | 4.45578 | 38994 ft | 391 kts | 225° |
| 2026-05-04 13:24 | 42.74920 | 4.40697 | 39010 ft | 391 kts | 225° |
| 2026-05-04 13:24 | 42.71030 | 4.35588 | 38984 ft | 386 kts | 232° |
| 2026-05-04 13:25 | 42.66470 | 4.28274 | 38982 ft | 382 kts | 233° |
| 2026-05-04 13:25 | 42.63026 | 4.22796 | 38975 ft | 382 kts | 233° |
| 2026-05-04 13:26 | 42.59563 | 4.17338 | 38977 ft | 382 kts | 232° |
| 2026-05-04 13:26 | 42.56057 | 4.11846 | 38459 ft | 389 kts | 232° |
| 2026-05-04 13:27 | 42.54302 | 4.09109 | 37870 ft | 388 kts | 231° |
| 2026-05-04 13:27 | 42.52535 | 4.06361 | 37314 ft | 386 kts | 231° |
| 2026-05-04 13:27 | 42.50772 | 4.03618 | 36715 ft | 384 kts | 231° |
| 2026-05-04 13:27 | 42.49023 | 4.00894 | 36109 ft | 383 kts | 231° |
| 2026-05-04 13:28 | 42.47272 | 3.98172 | 35430 ft | 384 kts | 231° |
| 2026-05-04 13:28 | 42.45516 | 3.95438 | 34729 ft | 385 kts | 231° |
| 2026-05-04 13:28 | 42.43756 | 3.92701 | 34008 ft | 386 kts | 231° |
| 2026-05-04 13:28 | 42.41988 | 3.89958 | 33281 ft | 387 kts | 230° |
| 2026-05-04 13:29 | 42.40216 | 3.87214 | 32547 ft | 388 kts | 230° |
| 2026-05-04 13:29 | 42.38438 | 3.84462 | 31798 ft | 389 kts | 231° |
| 2026-05-04 13:29 | 42.36656 | 3.81702 | 31035 ft | 390 kts | 230° |
| 2026-05-04 13:29 | 42.34871 | 3.78946 | 30300 ft | 389 kts | 230° |
| 2026-05-04 13:30 | 42.33102 | 3.76216 | 29770 ft | 384 kts | 230° |
| 2026-05-04 13:30 | 42.31348 | 3.73513 | 29194 ft | 381 kts | 230° |
| 2026-05-04 13:30 | 42.29612 | 3.70839 | 28626 ft | 377 kts | 230° |
| 2026-05-04 13:30 | 42.27894 | 3.68192 | 28069 ft | 373 kts | 230° |
| 2026-05-04 13:31 | 42.26204 | 3.65594 | 27522 ft | 371 kts | 230° |
| 2026-05-04 13:31 | 42.24487 | 3.62953 | 26969 ft | 367 kts | 230° |
| 2026-05-04 13:31 | 42.22802 | 3.60359 | 26414 ft | 370 kts | 230° |
| 2026-05-04 13:31 | 42.21077 | 3.57706 | 25872 ft | 385 kts | 230° |
| 2026-05-04 13:32 | 42.19292 | 3.54969 | 25278 ft | 389 kts | 230° |
| 2026-05-04 13:32 | 42.17532 | 3.52276 | 24696 ft | 385 kts | 230° |
| 2026-05-04 13:32 | 42.15766 | 3.49576 | 24109 ft | 382 kts | 230° |
| 2026-05-04 13:32 | 42.14018 | 3.46905 | 23524 ft | 379 kts | 230° |
| 2026-05-04 13:33 | 42.12283 | 3.44255 | 22970 ft | 376 kts | 230° |
| 2026-05-04 13:33 | 42.10540 | 3.41593 | 22403 ft | 373 kts | 230° |
| 2026-05-04 13:33 | 42.08854 | 3.39020 | 21848 ft | 370 kts | 229° |
| 2026-05-04 13:33 | 42.07152 | 3.36426 | 21300 ft | 368 kts | 229° |
| 2026-05-04 13:34 | 42.05442 | 3.33822 | 20739 ft | 366 kts | 229° |
| 2026-05-04 13:34 | 42.03808 | 3.31336 | 20205 ft | 363 kts | 229° |
| 2026-05-04 13:34 | 42.02138 | 3.28797 | 19661 ft | 361 kts | 229° |
| 2026-05-04 13:34 | 42.00498 | 3.26306 | 19124 ft | 359 kts | 229° |
| 2026-05-04 13:35 | 41.98819 | 3.23761 | 18572 ft | 358 kts | 228° |
| 2026-05-04 13:35 | 41.95524 | 3.18769 | 17483 ft | 356 kts | 229° |
| 2026-05-04 13:35 | 41.93885 | 3.16287 | 16945 ft | 355 kts | 229° |
| 2026-05-04 13:36 | 41.92239 | 3.13798 | 16400 ft | 354 kts | 228° |
| 2026-05-04 13:36 | 41.90632 | 3.11369 | 15871 ft | 353 kts | 228° |
| 2026-05-04 13:36 | 41.89005 | 3.08916 | 15327 ft | 351 kts | 228° |
| 2026-05-04 13:36 | 41.87383 | 3.06471 | 14791 ft | 350 kts | 228° |
| 2026-05-04 13:37 | 41.85763 | 3.04031 | 14248 ft | 349 kts | 228° |
| 2026-05-04 13:37 | 41.84149 | 3.01600 | 13703 ft | 348 kts | 227° |
| 2026-05-04 13:37 | 41.82545 | 2.99186 | 13174 ft | 346 kts | 227° |
| 2026-05-04 13:37 | 41.80946 | 2.96783 | 12628 ft | 345 kts | 227° |
| 2026-05-04 13:38 | 41.79345 | 2.94380 | 12078 ft | 344 kts | 227° |
| 2026-05-04 13:38 | 41.77756 | 2.91995 | 11538 ft | 343 kts | 227° |
| 2026-05-04 13:38 | 41.76172 | 2.89619 | 11005 ft | 341 kts | 227° |
| 2026-05-04 13:38 | 41.74610 | 2.87278 | 10764 ft | 332 kts | 227° |
| 2026-05-04 13:39 | 41.73092 | 2.85002 | 10580 ft | 322 kts | 227° |
| 2026-05-04 13:39 | 41.71628 | 2.82806 | 10432 ft | 311 kts | 227° |
| 2026-05-04 13:39 | 41.70209 | 2.80679 | 10293 ft | 301 kts | 227° |
| 2026-05-04 13:39 | 41.68837 | 2.78625 | 10168 ft | 292 kts | 227° |
| 2026-05-04 13:40 | 41.67501 | 2.76626 | 10043 ft | 284 kts | 227° |
| 2026-05-04 13:40 | 41.66205 | 2.74690 | 9927 ft | 275 kts | 228° |
| 2026-05-04 13:40 | 41.64948 | 2.72812 | 9669 ft | 272 kts | 228° |
| 2026-05-04 13:40 | 41.63676 | 2.70914 | 9325 ft | 274 kts | 228° |
| 2026-05-04 13:41 | 41.62393 | 2.69007 | 8963 ft | 276 kts | 228° |
| 2026-05-04 13:41 | 41.61111 | 2.67101 | 8630 ft | 276 kts | 228° |
| 2026-05-04 13:41 | 41.59824 | 2.65195 | 8297 ft | 276 kts | 228° |
| 2026-05-04 13:42 | 41.57265 | 2.61388 | 7642 ft | 276 kts | 228° |
| 2026-05-04 13:42 | 41.55983 | 2.59483 | 7302 ft | 276 kts | 228° |
| 2026-05-04 13:42 | 41.54700 | 2.57579 | 6952 ft | 276 kts | 228° |
| 2026-05-04 13:42 | 41.53414 | 2.55675 | 6597 ft | 277 kts | 229° |
| 2026-05-04 13:43 | 41.52122 | 2.53763 | 6266 ft | 277 kts | 229° |
| 2026-05-04 13:43 | 41.50837 | 2.51864 | 5943 ft | 276 kts | 229° |
| 2026-05-04 13:43 | 41.49554 | 2.49965 | 5610 ft | 275 kts | 229° |
| 2026-05-04 13:43 | 41.48270 | 2.48067 | 5263 ft | 275 kts | 228° |
| 2026-05-04 13:44 | 41.46986 | 2.46177 | 4928 ft | 276 kts | 228° |
| 2026-05-04 13:44 | 41.45691 | 2.44270 | 4617 ft | 278 kts | 228° |
| 2026-05-04 13:44 | 41.44412 | 2.42383 | 4456 ft | 271 kts | 228° |
| 2026-05-04 13:44 | 41.43182 | 2.40566 | 4321 ft | 264 kts | 227° |
| 2026-05-04 13:45 | 41.41967 | 2.38777 | 4204 ft | 256 kts | 228° |
| 2026-05-04 13:45 | 41.40774 | 2.37021 | 4091 ft | 249 kts | 228° |
| 2026-05-04 13:45 | 41.39627 | 2.35331 | 3887 ft | 245 kts | 228° |
| 2026-05-04 13:45 | 41.38485 | 2.33648 | 3636 ft | 244 kts | 227° |
| 2026-05-04 13:46 | 41.37374 | 2.32017 | 3390 ft | 243 kts | 227° |
| 2026-05-04 13:46 | 41.36273 | 2.30394 | 3115 ft | 238 kts | 227° |
| 2026-05-04 13:46 | 41.35341 | 2.28564 | 2835 ft | 234 kts | 246° |
| 2026-05-04 13:46 | 41.34740 | 2.26590 | 2588 ft | 226 kts | 245° |
| 2026-05-04 13:47 | 41.34157 | 2.24791 | 2361 ft | 215 kts | 245° |
| 2026-05-04 13:47 | 41.33561 | 2.23001 | 2057 ft | 206 kts | 245° |
| 2026-05-04 13:47 | 41.33001 | 2.21335 | 1847 ft | 187 kts | 245° |
| 2026-05-04 13:47 | 41.32479 | 2.19831 | 1585 ft | 175 kts | 245° |
| 2026-05-04 13:48 | 41.31983 | 2.18409 | 1371 ft | 167 kts | 245° |
| 2026-05-04 13:48 | 41.31519 | 2.17057 | 1173 ft | 161 kts | 246° |
| 2026-05-04 13:48 | 41.31052 | 2.15691 | 937 ft | 163 kts | 246° |
| 2026-05-04 13:48 | 41.30582 | 2.14322 | 718 ft | 159 kts | 247° |
| 2026-05-04 13:49 | 41.30147 | 2.13041 | 502 ft | 142 kts | 248° |
| 2026-05-04 13:49 | 41.29774 | 2.11896 | 322 ft | 131 kts | 249° |
| 2026-05-04 13:49 | 41.29376 | 2.10801 | 117 ft | 132 kts | 246° |
| 2026-05-04 13:49 | 41.29009 | 2.09702 | 18 ft | 118 kts | 248° |
| 2026-05-04 13:50 | 41.28731 | 2.08892 | 18 ft | 74 kts | 242° |
| 2026-05-04 13:50 | 41.28657 | 2.08434 | 21 ft | 35 kts | 288° |
| 2026-05-04 13:50 | 41.28715 | 2.08231 | 18 ft | 23 kts | 339° |
| 2026-05-04 13:50 | 41.28864 | 2.08173 | 17 ft | 22 kts | 337° |
| 2026-05-04 13:51 | 41.28945 | 2.08042 | 17 ft | 21 kts | 239° |
| 2026-05-04 13:51 | 41.28879 | 2.07873 | 16 ft | 20 kts | 247° |
| 2026-05-04 13:51 | 41.28873 | 2.07729 | 16 ft | 11 kts | 294° |
| 2026-05-04 13:51 | 41.28891 | 2.07665 | 17 ft | 0 kts | 291° |